EmailTwitter


Observations de surface / Québec / EGGD

Régions: Québec | Canada | États-Unis | Europe | France | UK | Ailleurs
Station
Affichage
Infos & localisation pour EGGD | Aide pour décoder les METARs

Observations prises le 2017-09-21 à 10H20 UTC à BRISTOL/LULSGATE, UK (EGGD)

Etat du ciel: partiellement nuageux.

Obstacle(s) à la visibilité: faible pluie et bruine.

Température: 14.0 Celsius

Point de rosée: 14.0 Celsius

Humidité relative: 100%

Vents: Sud à 17 km/h ou 9 noeuds.

Pression au niveau moyen de la mer: 101.20 kilopascals.

Visibilité horizontale: 2.17 milles terrestres ou 3.48 kilomètres.

Hauteur du plafond: 91 mètres ( 300 pieds ).

Observation METAR:

EGGD 211020Z 17009KT 3500 -RADZ BKN003 14/14 Q1012 RERA=